Time;durP1;ratioP1;P1;durP2;ratioP2;P2;SDS_P1;SDS_P2;PMS_P1;PMS_P2;Temp;Humidity;BMP_temperature;BMP_pressure;BME280_temperature;BME280_humidity;BME280_pressure;Samples;Min_cycle;Max_cycle;Signal;HPM_P1;HPM_P2
2022/09/02 00:01:31;;;;;;;7.90;6.00;;;;;;;17.69;76.44;98201.47;4172262;28;20633;-84
2022/09/02 00:03:36;;;;;;;6.70;5.50;;;;;;;17.68;76.41;98205.06;4188495;28;20652;-84
2022/09/02 00:05:40;;;;;;;5.93;5.33;;;;;;;17.69;75.24;98201.47;4183463;28;20709;-85
2022/09/02 00:07:43;;;;;;;6.70;6.10;;;;;;;17.70;75.87;98195.22;4189488;28;20675;-85
2022/09/02 00:09:45;;;;;;;6.43;5.83;;;;;;;17.71;75.77;98191.59;4186679;28;20638;-84
2022/09/02 00:11:50;;;;;;;5.97;5.47;;;;;;;17.66;76.66;98192.03;4187040;28;21085;-85
2022/09/02 00:13:53;;;;;;;6.23;5.73;;;;;;;17.66;75.40;98192.03;4188801;28;20632;-84
2022/09/02 00:15:56;;;;;;;6.57;5.97;;;;;;;17.67;75.91;98195.53;4186554;28;20681;-84
2022/09/02 00:17:59;;;;;;;6.83;5.60;;;;;;;17.67;76.20;98193.69;4181863;28;21037;-85
2022/09/02 00:20:04;;;;;;;5.70;5.20;;;;;;;17.66;75.51;98191.22;4197230;28;20632;-87
2022/09/02 00:22:08;;;;;;;6.60;5.40;;;;;;;17.65;76.09;98186.91;4185678;28;20636;-85
2022/09/02 00:24:11;;;;;;;6.20;5.60;;;;;;;17.67;76.16;98188.44;4185620;28;20706;-85
2022/09/02 00:26:14;;;;;;;7.10;6.43;;;;;;;17.67;76.66;98182.31;4185764;28;20736;-84
2022/09/02 00:28:18;;;;;;;7.33;6.73;;;;;;;17.62;76.06;98180.13;4186320;28;20632;-85
2022/09/02 00:30:22;;;;;;;6.90;6.20;;;;;;;17.57;75.94;98182.34;4174911;28;20621;-84
2022/09/02 00:32:25;;;;;;;6.57;5.97;;;;;;;17.54;77.13;98174.72;4170797;28;20667;-85
2022/09/02 00:34:28;;;;;;;7.10;6.40;;;;;;;17.52;76.08;98179.31;4186414;28;21193;-85
2022/09/02 00:36:33;;;;;;;7.10;6.40;;;;;;;17.53;76.02;98181.00;4196504;28;20637;-85
2022/09/02 00:38:38;;;;;;;7.27;6.60;;;;;;;17.47;76.66;98180.75;4174444;28;20633;-84
2022/09/02 00:40:48;;;;;;;8.57;7.70;;;;;;;17.39;77.69;98179.81;4190924;28;20674;-84
2022/09/02 00:42:51;;;;;;;7.10;6.50;;;;;;;17.33;77.39;98177.75;4198822;28;20624;-85
2022/09/02 00:44:54;;;;;;;7.30;6.60;;;;;;;17.31;77.43;98179.69;4182906;28;20655;-85
2022/09/02 00:46:57;;;;;;;7.53;6.83;;;;;;;17.30;77.79;98170.94;4189216;28;20626;-85
2022/09/02 00:49:04;;;;;;;7.17;6.57;;;;;;;17.31;77.69;98169.16;4188759;28;21182;-85
2022/09/02 00:51:07;;;;;;;6.87;6.03;;;;;;;17.29;75.83;98174.56;4183730;28;20724;-85
2022/09/02 00:53:14;;;;;;;6.83;6.17;;;;;;;17.29;77.72;98171.09;4185880;28;21008;-86
2022/09/02 00:55:19;;;;;;;6.97;6.27;;;;;;;17.27;76.57;98162.50;4188344;28;20648;-85
2022/09/02 00:57:25;;;;;;;6.50;5.90;;;;;;;17.22;76.30;98156.84;4185006;28;20694;-85
2022/09/02 00:59:39;;;;;;;6.53;5.93;;;;;;;17.21;76.65;98157.78;4186912;28;20632;-85
2022/09/02 01:01:43;;;;;;;7.00;5.70;;;;;;;17.22;76.34;98165.56;4185971;28;20740;-85
2022/09/02 01:03:47;;;;;;;6.00;5.47;;;;;;;17.19;77.45;98160.53;4181675;28;21294;-84
2022/09/02 01:05:52;;;;;;;5.80;5.30;;;;;;;17.17;78.25;98172.19;4188610;28;20633;-84
2022/09/02 01:07:56;;;;;;;6.17;5.67;;;;;;;17.16;77.22;98167.91;4172172;28;20668;-85
2022/09/02 01:10:02;;;;;;;6.93;5.97;;;;;;;17.16;78.12;98170.56;4172973;28;20709;-85
2022/09/02 01:12:05;;;;;;;6.47;5.87;;;;;;;17.16;77.90;98165.28;4190237;28;20619;-85
2022/09/02 01:14:11;;;;;;;6.63;5.97;;;;;;;17.13;77.04;98166.38;4184368;28;20671;-85
2022/09/02 01:16:19;;;;;;;6.13;5.53;;;;;;;17.18;77.07;98179.13;4173842;28;20609;-85
2022/09/02 01:18:28;;;;;;;6.70;6.00;;;;;;;17.21;77.91;98170.97;4187931;28;20681;-85
2022/09/02 01:20:31;;;;;;;6.57;5.97;;;;;;;17.22;77.72;98170.00;4186383;28;21219;-85
2022/09/02 01:22:35;;;;;;;6.30;5.70;;;;;;;17.21;76.38;98173.63;4191021;28;20631;-85
2022/09/02 01:24:38;;;;;;;6.00;5.27;;;;;;;17.22;76.47;98176.09;4169861;28;20710;-84
2022/09/02 01:26:41;;;;;;;6.10;5.50;;;;;;;17.22;77.48;98170.00;4184111;28;20634;-85
2022/09/02 01:28:44;;;;;;;6.13;5.53;;;;;;;17.24;77.02;98165.41;4188461;28;20633;-85
2022/09/02 01:30:50;;;;;;;7.30;6.30;;;;;;;17.23;76.42;98175.16;4190152;28;20630;-85
2022/09/02 01:32:54;;;;;;;6.00;5.50;;;;;;;17.21;76.84;98163.06;4169698;28;20637;-85
2022/09/02 01:34:58;;;;;;;5.83;5.33;;;;;;;17.20;76.55;98179.81;4170236;28;20634;-85
2022/09/02 01:37:02;;;;;;;6.17;5.67;;;;;;;17.19;76.31;98159.72;4187339;28;21113;-84
2022/09/02 01:39:06;;;;;;;5.80;5.30;;;;;;;17.19;76.89;98167.63;4170052;28;20702;-85
2022/09/02 01:41:10;;;;;;;6.50;5.50;;;;;;;17.19;77.61;98171.09;4184432;28;20675;-85
2022/09/02 01:43:16;;;;;;;6.90;6.20;;;;;;;17.16;77.28;98167.91;4189629;28;20698;-85
2022/09/02 01:45:22;;;;;;;6.50;5.80;;;;;;;17.12;77.24;98151.56;4185939;28;20647;-84
2022/09/02 01:47:26;;;;;;;5.73;5.20;;;;;;;17.13;77.41;98157.66;4185865;28;20633;-84
2022/09/02 01:49:30;;;;;;;5.73;5.13;;;;;;;17.08;76.75;98167.81;4183914;28;20698;-84
2022/09/02 01:51:38;;;;;;;6.10;5.50;;;;;;;17.05;77.41;98162.81;4183335;28;20620;-85
2022/09/02 01:53:44;;;;;;;9.57;6.23;;;;;;;17.01;77.67;98161.44;4187920;28;20654;-85
2022/09/02 01:55:48;;;;;;;8.40;7.60;;;;;;;16.90;76.64;98158.97;4190355;28;20621;-85
2022/09/02 01:57:51;;;;;;;9.23;7.27;;;;;;;16.76;77.49;98154.13;4169740;28;20624;-85
2022/09/02 01:59:55;;;;;;;8.80;7.80;;;;;;;16.68;77.09;98159.25;4189413;28;20624;-84
2022/09/02 02:01:59;;;;;;;9.43;7.97;;;;;;;16.60;77.27;98155.69;4172924;28;21289;-85
2022/09/02 02:04:03;;;;;;;9.20;8.20;;;;;;;16.50;78.64;98154.03;4170810;28;20661;-85
2022/09/02 02:06:10;;;;;;;10.83;8.03;;;;;;;16.41;78.89;98158.31;4187163;28;20656;-85
2022/09/02 02:08:15;;;;;;;9.50;8.63;;;;;;;16.31;80.71;98154.00;4172918;28;21266;-85
2022/09/02 02:10:21;;;;;;;9.90;8.90;;;;;;;16.22;81.10;98160.97;4190173;28;21266;-85
2022/09/02 02:12:26;;;;;;;9.30;8.40;;;;;;;16.14;80.77;98158.13;4186116;28;20635;-85
2022/09/02 02:14:30;;;;;;;10.10;8.47;;;;;;;16.06;79.36;98157.16;4185281;28;20629;-85
2022/09/02 02:16:33;;;;;;;9.90;8.13;;;;;;;16.02;82.00;98157.56;4183095;28;20624;-85
2022/09/02 02:18:36;;;;;;;8.30;7.47;;;;;;;15.98;80.46;98156.16;4189730;28;20662;-85
2022/09/02 02:20:39;;;;;;;9.30;8.40;;;;;;;15.93;81.00;98153.94;4193720;28;20626;-85
2022/09/02 02:22:47;;;;;;;8.87;8.07;;;;;;;15.88;82.11;98150.91;4184978;28;21261;-85
2022/09/02 02:24:51;;;;;;;10.33;8.20;;;;;;;15.87;80.59;98153.66;4181471;28;20693;-84
2022/09/02 02:26:54;;;;;;;9.10;8.20;;;;;;;15.84;82.27;98152.13;4182172;28;20654;-84
2022/09/02 02:28:59;;;;;;;11.73;7.90;;;;;;;15.82;80.81;98151.44;4186600;28;20627;-85
2022/09/02 02:31:03;;;;;;;8.50;7.70;;;;;;;15.80;83.10;98152.53;4166717;28;20635;-85
2022/09/02 02:33:06;;;;;;;9.67;8.40;;;;;;;15.79;81.37;98156.97;4205006;28;21336;-84
2022/09/02 02:35:10;;;;;;;8.90;8.10;;;;;;;15.77;83.00;98152.78;4205952;28;20996;-84
2022/09/02 02:37:14;;;;;;;7.70;7.00;;;;;;;15.73;82.42;98149.63;4162160;28;20635;-85
2022/09/02 02:39:17;;;;;;;8.40;7.60;;;;;;;15.73;83.38;98159.31;4185330;28;20644;-85
2022/09/02 02:41:21;;;;;;;8.37;7.63;;;;;;;15.70;83.65;98152.50;4189373;28;20688;-85
2022/09/02 02:43:24;;;;;;;8.47;7.20;;;;;;;15.71;81.32;98154.19;4169563;28;21209;-85
2022/09/02 02:45:29;;;;;;;8.80;7.90;;;;;;;15.70;81.77;98162.22;4185252;28;21427;-85
2022/09/02 02:47:32;;;;;;;10.07;7.50;;;;;;;15.67;81.55;98150.16;4182957;28;21442;-85
2022/09/02 02:49:37;;;;;;;9.10;8.20;;;;;;;15.67;82.42;98159.84;4187416;28;21477;-84
2022/09/02 02:51:40;;;;;;;8.37;7.57;;;;;;;15.65;83.28;98151.25;4182317;28;21217;-85
2022/09/02 02:53:43;;;;;;;8.23;7.47;;;;;;;15.63;83.16;98140.84;4185597;28;20623;-84
2022/09/02 02:55:46;;;;;;;7.80;6.90;;;;;;;15.62;81.86;98141.00;4189369;28;21309;-85
2022/09/02 02:57:52;;;;;;;7.87;7.10;;;;;;;15.62;82.87;98133.09;4192986;28;20630;-84
2022/09/02 02:59:56;;;;;;;10.23;7.53;;;;;;;15.63;83.70;98143.47;4189217;28;20624;-85
2022/09/02 03:02:01;;;;;;;8.20;7.47;;;;;;;15.63;81.67;98150.56;4167426;28;20663;-85
2022/09/02 03:04:05;;;;;;;9.77;7.47;;;;;;;15.64;83.59;98144.34;4169866;28;21310;-84
2022/09/02 03:06:08;;;;;;;7.77;6.97;;;;;;;15.66;81.27;98148.47;4189229;28;20674;-85
2022/09/02 03:08:12;;;;;;;6.43;5.70;;;;;;;15.69;81.24;98144.75;4209139;28;21281;-85
2022/09/02 03:10:15;;;;;;;6.20;5.60;;;;;;;15.74;80.92;98145.19;4186101;28;21248;-85
2022/09/02 03:12:19;;;;;;;5.70;5.10;;;;;;;15.79;81.44;98141.19;4171890;28;21110;-85
2022/09/02 03:14:23;;;;;;;6.80;5.50;;;;;;;15.85;80.35;98140.66;4170385;28;20650;-85
2022/09/02 03:16:27;;;;;;;5.70;5.20;;;;;;;15.87;80.89;98143.97;4192094;28;20689;-85
2022/09/02 03:18:31;;;;;;;6.10;5.50;;;;;;;15.93;81.67;98143.41;4188324;28;21240;-84
2022/09/02 03:20:34;;;;;;;5.70;5.20;;;;;;;15.96;80.48;98143.16;4189701;28;20681;-84
2022/09/02 03:22:40;;;;;;;6.30;5.70;;;;;;;16.00;80.41;98147.19;4186772;28;20626;-84
2022/09/02 03:24:43;;;;;;;6.83;5.47;;;;;;;16.01;79.04;98148.00;4168556;28;21010;-84
2022/09/02 03:26:47;;;;;;;5.17;4.67;;;;;;;16.05;79.16;98152.84;4173847;28;20660;-85
2022/09/02 03:28:54;;;;;;;7.03;5.00;;;;;;;16.07;80.93;98157.03;4171647;28;20631;-85
2022/09/02 03:30:56;;;;;;;5.67;5.10;;;;;;;16.12;79.46;98153.97;4187942;28;21041;-85
2022/09/02 03:33:03;;;;;;;6.83;5.60;;;;;;;16.13;80.43;98155.63;4184390;28;21289;-85
2022/09/02 03:35:12;;;;;;;5.70;5.10;;;;;;;16.13;78.75;98156.47;4175614;28;20629;-85
2022/09/02 03:37:16;;;;;;;6.80;6.20;;;;;;;16.13;80.07;98153.00;4189416;28;21035;-88
2022/09/02 03:39:20;;;;;;;5.73;5.23;;;;;;;16.14;78.74;98152.84;4187176;28;20659;-87
2022/09/02 03:41:24;;;;;;;5.40;4.90;;;;;;;16.17;80.42;98149.94;4188235;28;20643;-85
2022/09/02 03:43:29;;;;;;;5.70;5.20;;;;;;;16.15;80.42;98151.91;4204401;28;20622;-85
2022/09/02 03:45:32;;;;;;;6.23;5.63;;;;;;;16.15;78.92;98158.97;4191753;28;21423;-85
2022/09/02 03:47:46;;;;;;;6.00;5.40;;;;;;;16.18;78.69;98150.81;4187220;28;20820;-85
2022/09/02 03:49:49;;;;;;;5.60;5.10;;;;;;;16.19;79.36;98155.94;4171624;28;20628;-84
2022/09/02 03:51:54;;;;;;;6.97;6.27;;;;;;;16.11;79.47;98144.41;4192046;28;20630;-85
2022/09/02 03:53:58;;;;;;;7.23;6.10;;;;;;;16.04;78.99;98149.41;4201657;28;21271;-84
2022/09/02 03:56:05;;;;;;;6.90;5.93;;;;;;;16.00;78.48;98147.19;4164270;28;20636;-84
2022/09/02 03:58:08;;;;;;;6.30;5.80;;;;;;;16.00;79.02;98139.28;4174975;28;20726;-85
2022/09/02 04:00:16;;;;;;;6.03;5.43;;;;;;;16.01;78.51;98143.56;4174712;28;20633;-85
2022/09/02 04:02:21;;;;;;;5.90;5.30;;;;;;;16.03;78.38;98139.00;4164894;28;20647;-85
2022/09/02 04:04:24;;;;;;;7.37;5.40;;;;;;;16.01;80.32;98143.56;4165002;28;20997;-85
2022/09/02 04:06:28;;;;;;;6.53;5.57;;;;;;;16.02;77.90;98145.22;4187943;28;20790;-85
2022/09/02 04:08:37;;;;;;;6.47;5.37;;;;;;;16.02;80.06;98147.88;4187902;28;20743;-85
2022/09/02 04:10:40;;;;;;;5.60;5.10;;;;;;;16.03;80.14;98144.28;4167208;28;21486;-85
2022/09/02 04:12:43;;;;;;;6.50;5.90;;;;;;;15.99;79.17;98145.50;4185666;28;21022;-85
2022/09/02 04:14:46;;;;;;;6.63;5.93;;;;;;;15.95;80.31;98141.50;4174837;28;20682;-84
2022/09/02 04:20:47;;;;;;;7.40;6.70;;;;;;;15.75;79.92;98139.78;4188098;28;20920;-85
2022/09/02 04:23:09;;;;;;;9.77;7.20;;;;;;;15.64;81.32;98132.00;4186420;28;20630;-84
2022/09/02 04:25:15;;;;;;;8.83;7.93;;;;;;;15.57;79.55;98130.91;4186590;28;20663;-84
2022/09/02 04:27:20;;;;;;;9.00;8.10;;;;;;;15.52;81.66;98136.69;4187426;28;20773;-84
2022/09/02 04:29:25;;;;;;;9.13;8.23;;;;;;;15.45;80.44;98141.63;4174722;28;20627;-84
2022/09/02 04:31:30;;;;;;;7.70;7.00;;;;;;;15.41;80.63;98129.75;4190251;28;20629;-85
2022/09/02 04:33:35;;;;;;;9.13;8.33;;;;;;;15.38;80.92;98132.63;4190697;28;20636;-85
2022/09/02 04:35:40;;;;;;;8.67;7.70;;;;;;;15.36;81.10;98136.34;4174787;28;21059;-85
2022/09/02 04:37:46;;;;;;;8.17;7.47;;;;;;;15.32;81.54;98129.69;4174471;28;20685;-84
2022/09/02 04:39:51;;;;;;;8.40;7.60;;;;;;;15.33;81.71;98134.81;4168303;28;20692;-84
2022/09/02 04:41:56;;;;;;;8.23;7.43;;;;;;;15.31;82.20;98128.88;4183522;28;20666;-84
2022/09/02 04:44:00;;;;;;;8.40;7.60;;;;;;;15.31;80.87;98134.13;4184498;28;20664;-84
2022/09/02 04:46:08;;;;;;;8.27;7.57;;;;;;;15.27;81.17;98142.41;4188097;28;20636;-84
2022/09/02 04:48:12;;;;;;;8.07;7.27;;;;;;;15.25;81.50;98136.47;4187169;28;20629;-85
2022/09/02 04:50:16;;;;;;;12.07;7.50;;;;;;;15.23;81.98;98135.72;4187880;28;20660;-84
2022/09/02 04:52:32;;;;;;;8.20;7.40;;;;;;;15.22;83.05;98137.53;4188718;28;20992;-85
2022/09/02 04:54:36;;;;;;;8.10;7.40;;;;;;;15.18;82.71;98137.94;4189022;28;20649;-84
2022/09/02 04:56:40;;;;;;;8.13;7.30;;;;;;;15.16;82.64;98143.28;4188953;28;20608;-85
2022/09/02 04:58:45;;;;;;;8.27;7.47;;;;;;;15.14;82.19;98134.72;4192315;28;20635;-84
2022/09/02 05:00:48;;;;;;;9.17;8.27;;;;;;;15.14;82.75;98147.84;4186482;28;20665;-85
2022/09/02 05:02:54;;;;;;;8.60;7.70;;;;;;;15.17;82.27;98145.00;4172394;28;20781;-85
2022/09/02 05:04:59;;;;;;;9.03;8.13;;;;;;;15.23;82.54;98141.84;4189169;28;20633;-84
2022/09/02 05:07:05;;;;;;;9.10;8.10;;;;;;;15.27;83.49;98143.22;4187559;28;20768;-84
2022/09/02 05:09:14;;;;;;;9.50;8.50;;;;;;;15.34;82.11;98143.53;4170525;28;21575;-85
2022/09/02 05:11:27;;;;;;;9.10;8.30;;;;;;;15.44;82.45;98144.41;4182389;28;20694;-84
2022/09/02 05:13:31;;;;;;;10.10;8.03;;;;;;;15.55;83.09;98146.94;4184383;28;20651;-85
2022/09/02 05:15:40;;;;;;;9.70;8.70;;;;;;;15.69;82.06;98142.94;4189070;28;20676;-84
2022/09/02 05:17:45;;;;;;;8.53;7.73;;;;;;;15.77;80.84;98148.38;4170469;28;21429;-84
2022/09/02 05:19:49;;;;;;;9.03;8.23;;;;;;;15.90;81.78;98148.13;4166686;28;20682;-84
2022/09/02 05:21:54;;;;;;;10.13;9.10;;;;;;;16.00;81.55;98148.97;4190492;28;20615;-85
2022/09/02 05:24:03;;;;;;;8.83;8.03;;;;;;;16.07;81.17;98156.16;4194984;28;20671;-84
2022/09/02 05:26:07;;;;;;;8.83;8.03;;;;;;;16.11;80.08;98152.31;4181573;28;21261;-85
2022/09/02 05:28:11;;;;;;;8.03;7.30;;;;;;;16.22;80.79;98160.09;4172434;28;21263;-85
2022/09/02 05:30:14;;;;;;;8.83;8.03;;;;;;;16.28;79.33;98154.28;4185748;28;20688;-85
2022/09/02 05:32:19;;;;;;;8.03;7.23;;;;;;;16.38;80.12;98161.22;4185078;28;20746;-85
2022/09/02 05:34:24;;;;;;;8.90;7.43;;;;;;;16.46;78.81;98160.53;4190336;28;20630;-85
2022/09/02 05:36:31;;;;;;;8.37;7.67;;;;;;;16.54;80.04;98167.59;4186506;28;20626;-84
2022/09/02 05:38:34;;;;;;;8.60;7.70;;;;;;;16.63;79.51;98155.41;4167889;28;20624;-83
2022/09/02 05:40:38;;;;;;;8.30;7.27;;;;;;;16.73;77.56;98167.59;4205211;28;21234;-85
2022/09/02 05:42:44;;;;;;;7.90;7.00;;;;;;;16.87;77.19;98163.66;4168374;28;20640;-84
2022/09/02 05:44:50;;;;;;;9.50;6.90;;;;;;;16.99;78.74;98166.03;4183592;28;20713;-84
2022/09/02 05:46:56;;;;;;;7.20;6.60;;;;;;;17.05;77.34;98162.81;4184710;28;20674;-84
2022/09/02 05:49:06;;;;;;;7.77;7.03;;;;;;;17.10;77.56;98161.41;4173793;28;21255;-84
2022/09/02 05:51:19;;;;;;;7.87;7.00;;;;;;;17.14;77.05;98160.16;4187838;28;20641;-84
2022/09/02 05:53:25;;;;;;;6.57;5.97;;;;;;;17.21;77.65;98157.78;4169682;28;20667;-84
2022/09/02 05:55:29;;;;;;;7.50;6.80;;;;;;;17.37;77.20;98158.84;4184878;28;21237;-84
2022/09/02 05:57:32;;;;;;;6.40;5.67;;;;;;;17.57;76.15;98166.53;4190396;28;21218;-85
2022/09/02 05:59:42;;;;;;;6.30;5.40;;;;;;;17.74;74.67;98163.13;4185957;28;20632;-84
2022/09/02 06:01:49;;;;;;;5.80;5.20;;;;;;;18.05;74.44;98162.63;4168019;28;21464;-84
2022/09/02 06:03:52;;;;;;;5.07;4.67;;;;;;;18.29;73.36;98168.22;4171696;28;20691;-85
2022/09/02 06:05:58;;;;;;;6.10;5.30;;;;;;;18.60;72.73;98164.22;4180898;28;20749;-85
2022/09/02 06:08:09;;;;;;;6.20;5.33;;;;;;;18.96;72.84;98175.41;4188951;28;20694;-85
2022/09/02 06:10:13;;;;;;;5.70;5.10;;;;;;;19.20;71.90;98174.78;4184365;28;20682;-85
2022/09/02 06:12:18;;;;;;;6.43;4.93;;;;;;;19.43;70.76;98172.28;4187237;28;20632;-84
2022/09/02 06:14:24;;;;;;;6.00;5.50;;;;;;;19.58;68.40;98170.72;4167541;28;20635;-85
2022/09/02 06:16:28;;;;;;;5.90;5.30;;;;;;;19.60;68.54;98173.19;4187902;28;20684;-84
2022/09/02 06:18:32;;;;;;;5.70;5.20;;;;;;;19.80;68.34;98167.50;4172129;28;20632;-84
2022/09/02 06:20:39;;;;;;;8.63;5.37;;;;;;;19.88;69.92;98172.88;4201445;28;20620;-84
2022/09/02 06:22:44;;;;;;;5.40;4.90;;;;;;;19.97;68.34;98175.38;4185210;28;20624;-85
2022/09/02 06:24:47;;;;;;;5.63;5.10;;;;;;;20.14;66.79;98174.41;4180102;28;20703;-85
2022/09/02 06:26:58;;;;;;;6.20;4.53;;;;;;;20.28;68.54;98178.28;4188902;28;20643;-84
2022/09/02 06:29:01;;;;;;;5.17;4.70;;;;;;;20.52;68.13;98185.28;4187283;28;20668;-84
2022/09/02 06:31:08;;;;;;;5.60;5.00;;;;;;;20.74;67.56;98174.06;4170550;28;20670;-84
2022/09/02 06:33:12;;;;;;;5.40;4.37;;;;;;;20.98;67.48;98182.00;4189509;28;20965;-85
2022/09/02 06:35:17;;;;;;;4.77;4.37;;;;;;;21.18;67.12;98183.31;4188989;28;20731;-85
2022/09/02 06:37:20;;;;;;;7.73;4.57;;;;;;;21.30;66.52;98178.34;4186818;28;20625;-85
2022/09/02 06:39:27;;;;;;;5.20;4.33;;;;;;;21.52;65.17;98174.16;4171868;28;20641;-85
2022/09/02 06:41:33;;;;;;;4.70;4.20;;;;;;;21.60;65.11;98177.59;4190125;28;20959;-85
2022/09/02 06:43:40;;;;;;;4.33;3.93;;;;;;;21.53;64.32;98178.47;4192441;28;20663;-85
2022/09/02 06:45:55;;;;;;;4.80;4.40;;;;;;;21.49;64.76;98174.50;4189200;28;21507;-85
2022/09/02 06:47:58;;;;;;;5.83;4.40;;;;;;;21.65;64.00;98177.94;4190889;28;21062;-86
2022/09/02 06:50:02;;;;;;;5.23;4.50;;;;;;;21.87;63.66;98171.88;4201868;28;20612;-84
2022/09/02 06:52:05;;;;;;;5.53;4.23;;;;;;;21.70;64.00;98170.28;4174596;28;20643;-85
2022/09/02 06:54:14;;;;;;;4.40;4.00;;;;;;;21.90;62.97;98172.34;4175194;28;20628;-85
2022/09/02 06:56:20;;;;;;;4.53;4.13;;;;;;;21.96;64.32;98173.50;4169978;28;20624;-85
2022/09/02 06:58:23;;;;;;;5.97;4.70;;;;;;;21.90;62.99;98176.84;4165350;28;20623;-85
2022/09/02 07:00:26;;;;;;;4.90;4.40;;;;;;;21.91;63.50;98173.19;4191204;28;21347;-85
2022/09/02 07:02:29;;;;;;;4.63;4.00;;;;;;;22.22;63.27;98182.84;4193381;28;20650;-85
2022/09/02 07:06:58;;;;;;;5.03;4.43;;;;;;;22.82;61.68;98180.16;4174965;28;20624;-85
2022/09/02 07:09:05;;;;;;;7.40;4.20;;;;;;;22.90;61.33;98176.59;4171927;28;21278;-85
2022/09/02 07:11:16;;;;;;;4.40;4.00;;;;;;;22.84;61.40;98171.97;4185819;28;20734;-85
2022/09/02 07:13:21;;;;;;;4.93;4.03;;;;;;;23.03;61.47;98169.66;4190061;28;21082;-85
2022/09/02 07:15:24;;;;;;;6.77;4.17;;;;;;;23.21;60.99;98168.34;4172763;28;20719;-85
2022/09/02 07:17:27;;;;;;;4.30;3.90;;;;;;;23.27;61.00;98167.63;4186458;28;20760;-85
2022/09/02 07:19:36;;;;;;;4.80;3.90;;;;;;;23.35;60.32;98167.53;4189531;28;20628;-85
2022/09/02 07:21:40;;;;;;;4.67;3.93;;;;;;;23.51;60.22;98164.69;4188689;28;20670;-85
2022/09/02 07:23:44;;;;;;;5.40;3.83;;;;;;;23.61;60.62;98170.59;4187695;28;20629;-85
2022/09/02 07:25:47;;;;;;;5.40;3.90;;;;;;;23.72;60.65;98167.50;4189671;28;20640;-85
2022/09/02 07:27:51;;;;;;;4.93;3.60;;;;;;;23.84;59.74;98166.00;4176274;28;20629;-84
2022/09/02 07:29:56;;;;;;;4.30;3.90;;;;;;;23.75;60.13;98154.66;4175175;28;21256;-85
2022/09/02 07:31:59;;;;;;;6.27;3.33;;;;;;;24.00;60.31;98160.50;4171740;28;21182;-85
2022/09/02 07:34:04;;;;;;;4.23;3.83;;;;;;;24.12;58.67;98159.00;4201784;28;20643;-85
2022/09/02 07:36:09;;;;;;;5.03;3.60;;;;;;;24.12;58.43;98159.00;4190018;28;20628;-85
2022/09/02 07:38:16;;;;;;;6.10;3.87;;;;;;;24.18;59.41;98156.41;4162335;28;20737;-85
2022/09/02 07:40:19;;;;;;;3.67;3.20;;;;;;;24.44;58.14;98159.41;4184544;28;20633;-85
2022/09/02 07:42:23;;;;;;;4.03;3.63;;;;;;;24.47;57.58;98149.16;4174063;28;20635;-84
2022/09/02 07:44:26;;;;;;;5.90;3.53;;;;;;;24.56;59.13;98155.22;4171043;28;20638;-85
2022/09/02 07:46:31;;;;;;;6.17;3.50;;;;;;;24.66;57.61;98159.22;4171723;28;20730;-85
2022/09/02 07:48:36;;;;;;;3.73;3.43;;;;;;;24.81;57.97;98158.16;4169073;28;20644;-85
2022/09/02 07:50:39;;;;;;;6.37;3.50;;;;;;;24.93;57.87;98158.47;4186497;28;20726;-85
2022/09/02 07:52:47;;;;;;;3.90;3.50;;;;;;;24.82;57.23;98153.63;4185856;28;20656;-85
2022/09/02 07:54:52;;;;;;;4.60;3.50;;;;;;;24.91;58.15;98141.78;4188204;28;20633;-85
2022/09/02 07:56:55;;;;;;;3.73;3.33;;;;;;;24.94;57.55;98147.59;4188598;28;20665;-86
2022/09/02 07:58:59;;;;;;;5.30;3.70;;;;;;;24.93;57.19;98145.94;4185788;28;20625;-86
2022/09/02 08:01:02;;;;;;;3.80;3.30;;;;;;;24.47;56.73;98133.16;4185325;28;20648;-85
2022/09/02 08:03:06;;;;;;;3.37;3.07;;;;;;;24.52;58.38;98130.78;4172365;28;20688;-85
2022/09/02 08:05:20;;;;;;;3.80;3.37;;;;;;;24.71;58.02;98130.13;4170939;28;21210;-85
2022/09/02 08:07:24;;;;;;;4.73;3.30;;;;;;;24.72;57.23;98132.59;4173783;28;20742;-85
2022/09/02 08:09:27;;;;;;;3.70;3.10;;;;;;;24.83;56.52;98134.75;4191334;28;20662;-86
2022/09/02 08:11:31;;;;;;;5.70;3.10;;;;;;;24.79;57.04;98127.31;4182686;28;21209;-84
2022/09/02 08:13:35;;;;;;;3.27;2.77;;;;;;;24.99;56.17;98136.34;4192343;28;20630;-84
2022/09/02 08:15:38;;;;;;;3.33;3.03;;;;;;;25.04;54.95;98134.75;4187800;28;20626;-86
2022/09/02 08:17:43;;;;;;;3.00;2.70;;;;;;;25.00;56.22;98140.69;4169834;28;20623;-86
2022/09/02 08:19:47;;;;;;;2.90;2.60;;;;;;;24.74;55.59;98129.75;4189831;28;21067;-86
2022/09/02 08:21:50;;;;;;;3.33;2.77;;;;;;;24.66;55.39;98122.69;4191194;28;21004;-85
2022/09/02 08:23:53;;;;;;;4.07;2.67;;;;;;;24.87;55.56;98140.56;4189835;28;21252;-86
2022/09/02 08:25:59;;;;;;;8.50;2.73;;;;;;;24.98;54.47;98130.16;4188245;28;21009;-85
2022/09/02 08:28:03;;;;;;;3.40;2.33;;;;;;;25.01;55.06;98140.47;4184124;28;20626;-85
2022/09/02 08:30:08;;;;;;;4.30;2.50;;;;;;;25.16;54.84;98131.34;4189849;28;20901;-88
2022/09/02 08:32:12;;;;;;;2.70;2.40;;;;;;;25.18;54.16;98134.69;4188607;28;20739;-85
2022/09/02 08:34:15;;;;;;;3.50;2.80;;;;;;;25.23;54.10;98121.56;4181391;28;21189;-84
2022/09/02 08:36:20;;;;;;;4.33;2.70;;;;;;;25.05;54.85;98122.22;4182075;28;20632;-85
2022/09/02 08:38:23;;;;;;;4.10;2.90;;;;;;;25.05;54.46;98128.41;4189103;28;20624;-85
2022/09/02 08:40:32;;;;;;;3.40;2.73;;;;;;;25.03;53.53;98129.63;4172854;28;20629;-87
2022/09/02 08:42:38;;;;;;;3.23;2.00;;;;;;;25.22;53.78;98122.56;4185222;28;20626;-85
2022/09/02 08:44:41;;;;;;;3.33;2.33;;;;;;;25.39;53.25;98120.44;4185137;28;20608;-85
2022/09/02 08:46:44;;;;;;;2.57;2.30;;;;;;;25.36;53.53;98116.28;4183405;28;20641;-86
2022/09/02 08:48:51;;;;;;;3.20;2.60;;;;;;;25.56;53.59;98119.94;4184343;28;20691;-85
2022/09/02 08:50:59;;;;;;;8.03;2.30;;;;;;;25.56;52.96;98127.94;4189331;28;20645;-85
2022/09/02 08:53:09;;;;;;;3.17;2.40;;;;;;;25.58;52.24;98125.91;4170532;28;20635;-86
2022/09/02 08:55:19;;;;;;;6.60;2.20;;;;;;;25.69;52.70;98115.53;4190757;28;20633;-85
2022/09/02 08:57:25;;;;;;;2.97;2.50;;;;;;;25.86;51.71;98124.00;4187783;28;20631;-90
2022/09/02 08:59:30;;;;;;;4.67;2.57;;;;;;;25.86;50.87;98119.50;4187254;28;20636;-85
2022/09/02 09:01:43;;;;;;;5.77;2.80;;;;;;;25.78;51.06;98126.84;4186313;28;20671;-86
2022/09/02 09:04:07;;;;;;;3.30;2.53;;;;;;;25.86;51.31;98124.00;4190709;28;20699;-86
2022/09/02 09:06:16;;;;;;;2.70;2.20;;;;;;;25.88;51.05;98124.66;4188681;28;20622;-86
2022/09/02 09:08:27;;;;;;;5.83;2.23;;;;;;;25.88;51.51;98121.97;4184972;28;21163;-86
2022/09/02 09:10:37;;;;;;;5.00;2.63;;;;;;;25.91;51.76;98110.88;4187481;28;20664;-86
2022/09/02 09:13:11;;;;;;;2.20;2.00;;;;;;;25.82;51.57;98109.41;4178974;28;21429;-86
2022/09/02 09:15:20;;;;;;;4.97;2.30;;;;;;;25.92;49.99;98115.19;4187940;28;20623;-86
2022/09/02 09:17:28;;;;;;;5.00;2.10;;;;;;;25.80;49.51;98114.09;4204584;28;20694;-86
2022/09/02 09:19:39;;;;;;;2.90;2.00;;;;;;;25.62;49.96;98100.44;4206533;28;20627;-86
2022/09/02 09:21:43;;;;;;;7.70;2.53;;;;;;;25.68;50.09;98110.38;4183394;28;20617;-86
2022/09/02 09:23:49;;;;;;;3.10;2.40;;;;;;;25.78;49.80;98100.13;4188030;28;20633;-87
2022/09/02 09:25:55;;;;;;;3.53;2.07;;;;;;;25.91;50.53;98095.66;4169958;28;20658;-88
2022/09/02 09:28:00;;;;;;;2.63;2.10;;;;;;;25.94;49.33;98094.44;4184388;28;20672;-86
2022/09/02 09:30:06;;;;;;;2.27;2.07;;;;;;;25.74;49.86;98096.19;4187736;28;21237;-87
2022/09/02 09:32:24;;;;;;;5.37;2.03;;;;;;;25.68;48.60;98080.97;4185515;28;20622;-87
2022/09/02 09:35:01;;;;;;;11.20;2.50;;;;;;;25.65;49.02;98078.69;4185868;28;20613;-87
2022/09/02 09:37:05;;;;;;;3.80;2.07;;;;;;;25.13;47.99;98082.03;4181588;28;20619;-86
2022/09/02 09:39:19;;;;;;;8.23;2.40;;;;;;;24.93;48.51;98079.19;4189905;28;20704;-87
2022/09/02 09:41:23;;;;;;;9.90;2.57;;;;;;;24.91;49.85;98067.91;4183257;28;20617;-87
2022/09/02 09:43:30;;;;;;;13.50;2.63;;;;;;;25.06;49.97;98081.97;4184422;28;20688;-87
2022/09/02 09:45:34;;;;;;;9.20;2.40;;;;;;;25.09;48.50;98070.91;4186419;28;20671;-87
2022/09/02 09:47:37;;;;;;;7.77;2.30;;;;;;;25.01;49.28;98068.41;4187807;28;20633;-88
2022/09/02 09:49:40;;;;;;;11.57;2.20;;;;;;;24.98;47.94;98075.94;4179530;28;21067;-88
2022/09/02 09:51:54;;;;;;;5.10;2.20;;;;;;;24.92;48.99;98071.38;4186982;28;20625;-87
2022/09/02 09:54:15;;;;;;;5.40;2.17;;;;;;;24.95;47.74;98073.66;4183003;28;20993;-87
2022/09/02 09:56:31;;;;;;;5.40;2.23;;;;;;;24.93;48.43;98059.69;4186363;28;21257;-88
2022/09/02 09:58:44;;;;;;;5.27;1.60;;;;;;;24.77;48.39;98051.97;4169789;28;20695;-87